sensor_id;sensor_type;location;lat;lon;timestamp;P1;durP1;ratioP1;P2;durP2;ratioP2
47603;SDS011;33326;51.116;6.900;2022-07-06T00:03:40;5.88;;;2.33;;
47603;SDS011;33326;51.116;6.900;2022-07-06T00:08:42;6.93;;;2.28;;
47603;SDS011;33326;51.116;6.900;2022-07-06T00:13:46;7.30;;;2.30;;
47603;SDS011;33326;51.116;6.900;2022-07-06T00:18:48;6.18;;;2.00;;
47603;SDS011;33326;51.116;6.900;2022-07-06T00:23:50;4.47;;;1.88;;
47603;SDS011;33326;51.116;6.900;2022-07-06T00:28:53;3.95;;;1.88;;
47603;SDS011;33326;51.116;6.900;2022-07-06T00:33:55;4.38;;;1.90;;
47603;SDS011;33326;51.116;6.900;2022-07-06T00:38:57;2.70;;;2.00;;
47603;SDS011;33326;51.116;6.900;2022-07-06T00:44:00;4.43;;;1.98;;
47603;SDS011;33326;51.116;6.900;2022-07-06T00:49:07;3.97;;;1.80;;
47603;SDS011;33326;51.116;6.900;2022-07-06T00:54:30;3.38;;;1.58;;
47603;SDS011;33326;51.116;6.900;2022-07-06T00:59:34;4.88;;;2.15;;
47603;SDS011;33326;51.116;6.900;2022-07-06T01:04:37;5.15;;;2.03;;
47603;SDS011;33326;51.116;6.900;2022-07-06T01:09:38;5.40;;;2.20;;
47603;SDS011;33326;51.116;6.900;2022-07-06T01:14:42;2.55;;;1.80;;
47603;SDS011;33326;51.116;6.900;2022-07-06T01:19:44;3.28;;;1.55;;
47603;SDS011;33326;51.116;6.900;2022-07-06T01:24:47;3.13;;;1.70;;
47603;SDS011;33326;51.116;6.900;2022-07-06T01:29:49;4.07;;;2.05;;
47603;SDS011;33326;51.116;6.900;2022-07-06T01:34:51;4.93;;;1.80;;
47603;SDS011;33326;51.116;6.900;2022-07-06T01:39:54;4.68;;;1.95;;
47603;SDS011;33326;51.116;6.900;2022-07-06T01:44:59;3.63;;;1.92;;
47603;SDS011;33326;51.116;6.900;2022-07-06T01:50:03;3.72;;;2.30;;
47603;SDS011;33326;51.116;6.900;2022-07-06T01:55:10;8.77;;;3.08;;
47603;SDS011;33326;51.116;6.900;2022-07-06T02:00:13;5.53;;;2.30;;
47603;SDS011;33326;51.116;6.900;2022-07-06T02:05:20;10.40;;;2.80;;
47603;SDS011;33326;51.116;6.900;2022-07-06T02:10:24;4.00;;;2.10;;
47603;SDS011;33326;51.116;6.900;2022-07-06T02:15:26;5.82;;;2.60;;
47603;SDS011;33326;51.116;6.900;2022-07-06T02:20:28;6.40;;;2.78;;
47603;SDS011;33326;51.116;6.900;2022-07-06T02:25:32;5.97;;;2.60;;
47603;SDS011;33326;51.116;6.900;2022-07-06T02:30:34;4.28;;;2.58;;
47603;SDS011;33326;51.116;6.900;2022-07-06T02:35:35;7.70;;;2.72;;
47603;SDS011;33326;51.116;6.900;2022-07-06T02:40:44;6.70;;;2.97;;
47603;SDS011;33326;51.116;6.900;2022-07-06T02:45:46;8.52;;;2.97;;
47603;SDS011;33326;51.116;6.900;2022-07-06T02:50:49;4.72;;;2.70;;
47603;SDS011;33326;51.116;6.900;2022-07-06T02:55:53;6.45;;;3.10;;
47603;SDS011;33326;51.116;6.900;2022-07-06T03:00:55;4.70;;;2.92;;
47603;SDS011;33326;51.116;6.900;2022-07-06T03:05:57;7.93;;;3.25;;
47603;SDS011;33326;51.116;6.900;2022-07-06T03:11:00;5.70;;;2.72;;
47603;SDS011;33326;51.116;6.900;2022-07-06T03:16:03;5.97;;;3.20;;
47603;SDS011;33326;51.116;6.900;2022-07-06T03:21:05;6.50;;;3.03;;
47603;SDS011;33326;51.116;6.900;2022-07-06T03:26:10;6.43;;;2.95;;
47603;SDS011;33326;51.116;6.900;2022-07-06T03:31:12;5.60;;;2.72;;
47603;SDS011;33326;51.116;6.900;2022-07-06T03:36:14;5.80;;;3.30;;
47603;SDS011;33326;51.116;6.900;2022-07-06T03:41:18;5.93;;;2.80;;
47603;SDS011;33326;51.116;6.900;2022-07-06T03:46:21;8.00;;;3.20;;
47603;SDS011;33326;51.116;6.900;2022-07-06T03:51:23;7.57;;;3.10;;
47603;SDS011;33326;51.116;6.900;2022-07-06T03:56:27;4.55;;;2.97;;
47603;SDS011;33326;51.116;6.900;2022-07-06T04:01:33;6.25;;;3.08;;
47603;SDS011;33326;51.116;6.900;2022-07-06T04:06:35;5.75;;;3.10;;
47603;SDS011;33326;51.116;6.900;2022-07-06T04:11:40;5.22;;;3.10;;
47603;SDS011;33326;51.116;6.900;2022-07-06T04:16:42;5.38;;;3.10;;
47603;SDS011;33326;51.116;6.900;2022-07-06T04:21:44;9.57;;;3.55;;
47603;SDS011;33326;51.116;6.900;2022-07-06T04:26:48;5.57;;;3.13;;
47603;SDS011;33326;51.116;6.900;2022-07-06T04:31:50;8.80;;;3.47;;
47603;SDS011;33326;51.116;6.900;2022-07-06T04:36:52;5.75;;;3.25;;
47603;SDS011;33326;51.116;6.900;2022-07-06T04:41:55;6.63;;;3.22;;
47603;SDS011;33326;51.116;6.900;2022-07-06T04:46:58;10.88;;;3.67;;
47603;SDS011;33326;51.116;6.900;2022-07-06T04:52:00;5.93;;;3.70;;
47603;SDS011;33326;51.116;6.900;2022-07-06T04:57:05;7.63;;;4.20;;
47603;SDS011;33326;51.116;6.900;2022-07-06T05:02:07;8.80;;;4.30;;
47603;SDS011;33326;51.116;6.900;2022-07-06T05:07:09;5.85;;;4.20;;
47603;SDS011;33326;51.116;6.900;2022-07-06T05:12:13;6.82;;;4.82;;
47603;SDS011;33326;51.116;6.900;2022-07-06T05:17:15;10.00;;;4.90;;
47603;SDS011;33326;51.116;6.900;2022-07-06T05:22:17;10.80;;;5.25;;
47603;SDS011;33326;51.116;6.900;2022-07-06T05:27:21;11.55;;;4.32;;
47603;SDS011;33326;51.116;6.900;2022-07-06T05:32:23;7.57;;;3.97;;
47603;SDS011;33326;51.116;6.900;2022-07-06T05:37:25;7.25;;;3.78;;
47603;SDS011;33326;51.116;6.900;2022-07-06T05:42:30;9.50;;;4.25;;
47603;SDS011;33326;51.116;6.900;2022-07-06T05:47:32;9.20;;;4.35;;
47603;SDS011;33326;51.116;6.900;2022-07-06T05:52:56;8.00;;;3.93;;
47603;SDS011;33326;51.116;6.900;2022-07-06T05:58:00;16.58;;;4.00;;
47603;SDS011;33326;51.116;6.900;2022-07-06T06:03:05;8.52;;;4.10;;
47603;SDS011;33326;51.116;6.900;2022-07-06T06:08:07;12.65;;;4.57;;
47603;SDS011;33326;51.116;6.900;2022-07-06T06:13:11;6.85;;;4.13;;
47603;SDS011;33326;51.116;6.900;2022-07-06T06:18:13;7.88;;;3.65;;
47603;SDS011;33326;51.116;6.900;2022-07-06T06:23:17;6.03;;;3.50;;
47603;SDS011;33326;51.116;6.900;2022-07-06T06:28:20;10.52;;;2.95;;
47603;SDS011;33326;51.116;6.900;2022-07-06T06:33:22;7.07;;;2.47;;
47603;SDS011;33326;51.116;6.900;2022-07-06T06:38:24;6.88;;;3.03;;
47603;SDS011;33326;51.116;6.900;2022-07-06T06:43:29;7.32;;;2.40;;
47603;SDS011;33326;51.116;6.900;2022-07-06T06:48:44;8.27;;;2.58;;
47603;SDS011;33326;51.116;6.900;2022-07-06T06:53:46;6.00;;;2.15;;
47603;SDS011;33326;51.116;6.900;2022-07-06T06:58:49;8.35;;;2.15;;
47603;SDS011;33326;51.116;6.900;2022-07-06T07:03:51;6.10;;;1.92;;
47603;SDS011;33326;51.116;6.900;2022-07-06T07:08:53;5.60;;;1.80;;
47603;SDS011;33326;51.116;6.900;2022-07-06T07:13:57;6.82;;;1.52;;
47603;SDS011;33326;51.116;6.900;2022-07-06T07:19:00;3.78;;;1.45;;
47603;SDS011;33326;51.116;6.900;2022-07-06T07:24:02;5.45;;;1.40;;
47603;SDS011;33326;51.116;6.900;2022-07-06T07:29:06;7.95;;;1.38;;
47603;SDS011;33326;51.116;6.900;2022-07-06T07:34:07;5.88;;;1.75;;
47603;SDS011;33326;51.116;6.900;2022-07-06T07:39:09;5.63;;;1.67;;
47603;SDS011;33326;51.116;6.900;2022-07-06T07:44:12;9.40;;;2.08;;
47603;SDS011;33326;51.116;6.900;2022-07-06T07:49:14;6.60;;;1.45;;
47603;SDS011;33326;51.116;6.900;2022-07-06T07:54:16;5.45;;;1.95;;
47603;SDS011;33326;51.116;6.900;2022-07-06T07:59:20;6.00;;;1.58;;
47603;SDS011;33326;51.116;6.900;2022-07-06T08:04:22;4.03;;;1.27;;
47603;SDS011;33326;51.116;6.900;2022-07-06T08:09:24;4.75;;;1.30;;
47603;SDS011;33326;51.116;6.900;2022-07-06T08:14:27;5.07;;;1.17;;
47603;SDS011;33326;51.116;6.900;2022-07-06T08:19:29;6.30;;;1.10;;
47603;SDS011;33326;51.116;6.900;2022-07-06T08:24:32;3.40;;;1.08;;
47603;SDS011;33326;51.116;6.900;2022-07-06T08:29:35;3.67;;;1.15;;
47603;SDS011;33326;51.116;6.900;2022-07-06T08:34:37;5.18;;;0.95;;
47603;SDS011;33326;51.116;6.900;2022-07-06T08:39:39;3.30;;;1.10;;
47603;SDS011;33326;51.116;6.900;2022-07-06T08:44:42;3.67;;;0.90;;
47603;SDS011;33326;51.116;6.900;2022-07-06T08:49:45;4.63;;;1.13;;
47603;SDS011;33326;51.116;6.900;2022-07-06T08:54:47;5.30;;;1.13;;
47603;SDS011;33326;51.116;6.900;2022-07-06T08:59:50;3.83;;;0.80;;
47603;SDS011;33326;51.116;6.900;2022-07-06T09:04:53;2.75;;;1.17;;
47603;SDS011;33326;51.116;6.900;2022-07-06T09:09:58;4.38;;;0.80;;
47603;SDS011;33326;51.116;6.900;2022-07-06T09:15:03;2.13;;;0.55;;
47603;SDS011;33326;51.116;6.900;2022-07-06T09:20:06;2.65;;;0.88;;
47603;SDS011;33326;51.116;6.900;2022-07-06T09:25:11;3.78;;;0.77;;
47603;SDS011;33326;51.116;6.900;2022-07-06T09:30:15;3.25;;;0.80;;
47603;SDS011;33326;51.116;6.900;2022-07-06T09:35:21;3.35;;;0.70;;
47603;SDS011;33326;51.116;6.900;2022-07-06T09:40:24;2.97;;;0.73;;
47603;SDS011;33326;51.116;6.900;2022-07-06T09:45:29;4.13;;;0.80;;
47603;SDS011;33326;51.116;6.900;2022-07-06T09:50:32;2.65;;;0.85;;
47603;SDS011;33326;51.116;6.900;2022-07-06T09:55:44;3.75;;;0.85;;
47603;SDS011;33326;51.116;6.900;2022-07-06T10:00:48;5.40;;;1.00;;
47603;SDS011;33326;51.116;6.900;2022-07-06T10:05:51;2.60;;;1.10;;
47603;SDS011;33326;51.116;6.900;2022-07-06T10:10:57;3.28;;;0.98;;
47603;SDS011;33326;51.116;6.900;2022-07-06T10:16:00;2.35;;;0.65;;
47603;SDS011;33326;51.116;6.900;2022-07-06T10:21:03;1.98;;;0.88;;
47603;SDS011;33326;51.116;6.900;2022-07-06T10:26:05;2.65;;;1.08;;
47603;SDS011;33326;51.116;6.900;2022-07-06T10:31:09;2.58;;;1.15;;
47603;SDS011;33326;51.116;6.900;2022-07-06T10:36:11;5.60;;;1.23;;
47603;SDS011;33326;51.116;6.900;2022-07-06T10:41:14;2.05;;;1.20;;
47603;SDS011;33326;51.116;6.900;2022-07-06T10:46:17;3.35;;;1.13;;
47603;SDS011;33326;51.116;6.900;2022-07-06T10:51:22;3.42;;;0.93;;
47603;SDS011;33326;51.116;6.900;2022-07-06T10:56:31;3.03;;;1.25;;
47603;SDS011;33326;51.116;6.900;2022-07-06T11:01:35;4.68;;;1.80;;
47603;SDS011;33326;51.116;6.900;2022-07-06T11:06:38;2.28;;;1.17;;
47603;SDS011;33326;51.116;6.900;2022-07-06T11:11:41;3.95;;;1.20;;
47603;SDS011;33326;51.116;6.900;2022-07-06T11:17:02;2.95;;;1.10;;
47603;SDS011;33326;51.116;6.900;2022-07-06T11:22:05;2.70;;;1.02;;
47603;SDS011;33326;51.116;6.900;2022-07-06T11:27:09;2.40;;;0.70;;
47603;SDS011;33326;51.116;6.900;2022-07-06T11:32:12;2.70;;;0.70;;
47603;SDS011;33326;51.116;6.900;2022-07-06T11:37:14;1.40;;;0.80;;
47603;SDS011;33326;51.116;6.900;2022-07-06T11:42:17;1.42;;;0.60;;
47603;SDS011;33326;51.116;6.900;2022-07-06T11:47:21;2.42;;;0.80;;
47603;SDS011;33326;51.116;6.900;2022-07-06T11:52:31;4.43;;;1.00;;
47603;SDS011;33326;51.116;6.900;2022-07-06T11:57:33;1.52;;;0.70;;
47603;SDS011;33326;51.116;6.900;2022-07-06T12:02:37;3.05;;;0.90;;
47603;SDS011;33326;51.116;6.900;2022-07-06T12:07:39;2.55;;;0.70;;
47603;SDS011;33326;51.116;6.900;2022-07-06T12:12:41;6.15;;;1.05;;
47603;SDS011;33326;51.116;6.900;2022-07-06T12:17:47;3.28;;;1.13;;
47603;SDS011;33326;51.116;6.900;2022-07-06T12:22:49;8.05;;;1.38;;
47603;SDS011;33326;51.116;6.900;2022-07-06T12:28:01;3.97;;;1.00;;
47603;SDS011;33326;51.116;6.900;2022-07-06T12:33:12;2.67;;;1.15;;
47603;SDS011;33326;51.116;6.900;2022-07-06T12:38:20;2.40;;;1.10;;
47603;SDS011;33326;51.116;6.900;2022-07-06T12:43:36;1.88;;;0.80;;
47603;SDS011;33326;51.116;6.900;2022-07-06T12:48:51;2.70;;;0.73;;
47603;SDS011;33326;51.116;6.900;2022-07-06T13:04:23;2.67;;;1.10;;
47603;SDS011;33326;51.116;6.900;2022-07-06T13:09:26;2.60;;;0.77;;
47603;SDS011;33326;51.116;6.900;2022-07-06T13:14:28;5.25;;;1.13;;
47603;SDS011;33326;51.116;6.900;2022-07-06T13:19:31;2.33;;;1.00;;
47603;SDS011;33326;51.116;6.900;2022-07-06T13:24:33;5.75;;;1.10;;
47603;SDS011;33326;51.116;6.900;2022-07-06T13:29:35;1.75;;;0.80;;
47603;SDS011;33326;51.116;6.900;2022-07-06T13:34:38;2.95;;;0.80;;
47603;SDS011;33326;51.116;6.900;2022-07-06T13:39:40;4.72;;;1.02;;
47603;SDS011;33326;51.116;6.900;2022-07-06T13:44:42;2.30;;;0.90;;
47603;SDS011;33326;51.116;6.900;2022-07-06T13:49:45;3.03;;;0.93;;
47603;SDS011;33326;51.116;6.900;2022-07-06T13:54:47;4.90;;;0.70;;
47603;SDS011;33326;51.116;6.900;2022-07-06T13:59:49;2.83;;;0.93;;
47603;SDS011;33326;51.116;6.900;2022-07-06T14:04:52;3.50;;;0.95;;
47603;SDS011;33326;51.116;6.900;2022-07-06T14:09:54;6.65;;;1.27;;
47603;SDS011;33326;51.116;6.900;2022-07-06T14:14:56;4.25;;;0.80;;
47603;SDS011;33326;51.116;6.900;2022-07-06T14:19:59;4.70;;;0.80;;
47603;SDS011;33326;51.116;6.900;2022-07-06T14:25:01;4.10;;;1.05;;
47603;SDS011;33326;51.116;6.900;2022-07-06T14:30:03;3.17;;;0.70;;
47603;SDS011;33326;51.116;6.900;2022-07-06T14:35:07;1.83;;;0.90;;
47603;SDS011;33326;51.116;6.900;2022-07-06T14:40:09;2.35;;;0.80;;
47603;SDS011;33326;51.116;6.900;2022-07-06T14:45:11;3.55;;;0.70;;
47603;SDS011;33326;51.116;6.900;2022-07-06T14:50:14;3.40;;;1.23;;
47603;SDS011;33326;51.116;6.900;2022-07-06T14:55:16;1.67;;;0.80;;
47603;SDS011;33326;51.116;6.900;2022-07-06T15:00:18;1.98;;;0.90;;
47603;SDS011;33326;51.116;6.900;2022-07-06T15:05:21;3.13;;;0.88;;
47603;SDS011;33326;51.116;6.900;2022-07-06T15:10:23;1.90;;;0.68;;
47603;SDS011;33326;51.116;6.900;2022-07-06T15:15:25;4.07;;;1.08;;
47603;SDS011;33326;51.116;6.900;2022-07-06T15:20:29;4.60;;;0.85;;
47603;SDS011;33326;51.116;6.900;2022-07-06T15:25:31;3.33;;;0.95;;
47603;SDS011;33326;51.116;6.900;2022-07-06T15:30:33;3.03;;;0.95;;
47603;SDS011;33326;51.116;6.900;2022-07-06T15:35:37;2.80;;;0.65;;
47603;SDS011;33326;51.116;6.900;2022-07-06T15:40:39;3.08;;;0.80;;
47603;SDS011;33326;51.116;6.900;2022-07-06T15:45:44;2.13;;;0.85;;
47603;SDS011;33326;51.116;6.900;2022-07-06T15:50:48;4.80;;;0.90;;
47603;SDS011;33326;51.116;6.900;2022-07-06T15:55:49;2.88;;;0.70;;
47603;SDS011;33326;51.116;6.900;2022-07-06T16:00:52;3.80;;;0.70;;
47603;SDS011;33326;51.116;6.900;2022-07-06T16:05:55;1.33;;;0.70;;
47603;SDS011;33326;51.116;6.900;2022-07-06T16:10:57;5.68;;;0.70;;
47603;SDS011;33326;51.116;6.900;2022-07-06T16:15:59;3.50;;;0.93;;
47603;SDS011;33326;51.116;6.900;2022-07-06T16:21:03;2.97;;;0.77;;
47603;SDS011;33326;51.116;6.900;2022-07-06T16:26:05;1.23;;;0.70;;
47603;SDS011;33326;51.116;6.900;2022-07-06T16:31:07;3.90;;;0.90;;
47603;SDS011;33326;51.116;6.900;2022-07-06T16:36:10;3.72;;;1.08;;
47603;SDS011;33326;51.116;6.900;2022-07-06T16:41:15;1.75;;;0.70;;
47603;SDS011;33326;51.116;6.900;2022-07-06T16:46:17;3.10;;;1.17;;
47603;SDS011;33326;51.116;6.900;2022-07-06T16:51:20;4.63;;;0.98;;
47603;SDS011;33326;51.116;6.900;2022-07-06T16:56:22;4.70;;;1.33;;
47603;SDS011;33326;51.116;6.900;2022-07-06T17:01:24;1.10;;;0.65;;
47603;SDS011;33326;51.116;6.900;2022-07-06T17:06:27;3.22;;;1.27;;
47603;SDS011;33326;51.116;6.900;2022-07-06T17:11:29;2.90;;;1.17;;
47603;SDS011;33326;51.116;6.900;2022-07-06T17:16:31;5.85;;;1.15;;
47603;SDS011;33326;51.116;6.900;2022-07-06T17:21:34;4.13;;;0.98;;
47603;SDS011;33326;51.116;6.900;2022-07-06T17:26:36;3.17;;;1.00;;
47603;SDS011;33326;51.116;6.900;2022-07-06T17:31:38;5.05;;;1.08;;
47603;SDS011;33326;51.116;6.900;2022-07-06T17:36:42;1.52;;;0.60;;
47603;SDS011;33326;51.116;6.900;2022-07-06T17:41:43;1.67;;;0.70;;
47603;SDS011;33326;51.116;6.900;2022-07-06T17:46:45;3.88;;;0.90;;
47603;SDS011;33326;51.116;6.900;2022-07-06T17:51:49;5.07;;;1.10;;
47603;SDS011;33326;51.116;6.900;2022-07-06T17:56:51;11.15;;;1.20;;
47603;SDS011;33326;51.116;6.900;2022-07-06T18:01:53;4.57;;;1.00;;
47603;SDS011;33326;51.116;6.900;2022-07-06T18:06:56;1.88;;;1.05;;
47603;SDS011;33326;51.116;6.900;2022-07-06T18:11:58;4.28;;;0.90;;
47603;SDS011;33326;51.116;6.900;2022-07-06T18:17:00;6.68;;;1.05;;
47603;SDS011;33326;51.116;6.900;2022-07-06T18:22:04;3.05;;;0.70;;
47603;SDS011;33326;51.116;6.900;2022-07-06T18:27:06;5.80;;;1.10;;
47603;SDS011;33326;51.116;6.900;2022-07-06T18:32:08;2.42;;;0.85;;
47603;SDS011;33326;51.116;6.900;2022-07-06T18:37:11;5.00;;;0.90;;
47603;SDS011;33326;51.116;6.900;2022-07-06T18:42:13;5.15;;;1.10;;
47603;SDS011;33326;51.116;6.900;2022-07-06T18:47:16;4.60;;;1.08;;
47603;SDS011;33326;51.116;6.900;2022-07-06T18:52:22;2.67;;;0.90;;
47603;SDS011;33326;51.116;6.900;2022-07-06T18:57:24;3.95;;;0.85;;
47603;SDS011;33326;51.116;6.900;2022-07-06T19:02:26;5.97;;;1.00;;
47603;SDS011;33326;51.116;6.900;2022-07-06T19:07:30;3.88;;;0.88;;
47603;SDS011;33326;51.116;6.900;2022-07-06T19:12:32;5.03;;;0.98;;
47603;SDS011;33326;51.116;6.900;2022-07-06T19:17:33;3.85;;;1.23;;
47603;SDS011;33326;51.116;6.900;2022-07-06T19:22:38;6.03;;;0.98;;
47603;SDS011;33326;51.116;6.900;2022-07-06T19:27:41;3.83;;;1.08;;
47603;SDS011;33326;51.116;6.900;2022-07-06T19:32:42;3.75;;;1.15;;
47603;SDS011;33326;51.116;6.900;2022-07-06T19:37:45;4.63;;;1.55;;
47603;SDS011;33326;51.116;6.900;2022-07-06T19:42:47;5.15;;;1.40;;
47603;SDS011;33326;51.116;6.900;2022-07-06T19:47:49;6.85;;;1.13;;
47603;SDS011;33326;51.116;6.900;2022-07-06T19:52:52;1.23;;;0.73;;
47603;SDS011;33326;51.116;6.900;2022-07-06T19:57:54;3.20;;;1.05;;
47603;SDS011;33326;51.116;6.900;2022-07-06T20:02:56;3.22;;;1.17;;
47603;SDS011;33326;51.116;6.900;2022-07-06T20:08:00;3.85;;;1.30;;
47603;SDS011;33326;51.116;6.900;2022-07-06T20:13:02;2.30;;;1.05;;
47603;SDS011;33326;51.116;6.900;2022-07-06T20:18:03;2.65;;;1.33;;
47603;SDS011;33326;51.116;6.900;2022-07-06T20:23:07;2.30;;;1.58;;
47603;SDS011;33326;51.116;6.900;2022-07-06T20:28:08;2.33;;;1.10;;
47603;SDS011;33326;51.116;6.900;2022-07-06T20:33:11;4.10;;;1.02;;
47603;SDS011;33326;51.116;6.900;2022-07-06T20:38:14;2.13;;;0.98;;
47603;SDS011;33326;51.116;6.900;2022-07-06T20:43:17;3.13;;;1.05;;
47603;SDS011;33326;51.116;6.900;2022-07-06T20:48:19;5.18;;;1.30;;
47603;SDS011;33326;51.116;6.900;2022-07-06T20:53:22;4.97;;;1.50;;
47603;SDS011;33326;51.116;6.900;2022-07-06T20:58:24;4.55;;;1.52;;
47603;SDS011;33326;51.116;6.900;2022-07-06T21:03:26;4.97;;;1.50;;
47603;SDS011;33326;51.116;6.900;2022-07-06T21:08:31;2.30;;;1.35;;
47603;SDS011;33326;51.116;6.900;2022-07-06T21:13:33;3.33;;;1.10;;
47603;SDS011;33326;51.116;6.900;2022-07-06T21:18:35;6.80;;;1.13;;
47603;SDS011;33326;51.116;6.900;2022-07-06T21:23:38;3.60;;;1.40;;
47603;SDS011;33326;51.116;6.900;2022-07-06T21:28:40;5.35;;;1.42;;
47603;SDS011;33326;51.116;6.900;2022-07-06T21:33:42;3.10;;;1.25;;
47603;SDS011;33326;51.116;6.900;2022-07-06T21:38:45;4.68;;;1.58;;
47603;SDS011;33326;51.116;6.900;2022-07-06T21:43:47;4.43;;;1.15;;
47603;SDS011;33326;51.116;6.900;2022-07-06T21:48:49;6.72;;;1.30;;
47603;SDS011;33326;51.116;6.900;2022-07-06T21:53:52;4.25;;;1.52;;
47603;SDS011;33326;51.116;6.900;2022-07-06T21:58:54;4.93;;;1.55;;
47603;SDS011;33326;51.116;6.900;2022-07-06T22:03:56;3.97;;;1.70;;
47603;SDS011;33326;51.116;6.900;2022-07-06T22:08:59;5.13;;;2.00;;
47603;SDS011;33326;51.116;6.900;2022-07-06T22:14:01;4.97;;;1.85;;
47603;SDS011;33326;51.116;6.900;2022-07-06T22:19:03;9.07;;;1.88;;
47603;SDS011;33326;51.116;6.900;2022-07-06T22:24:06;5.28;;;1.90;;
47603;SDS011;33326;51.116;6.900;2022-07-06T22:29:08;6.00;;;2.03;;
47603;SDS011;33326;51.116;6.900;2022-07-06T22:34:10;5.55;;;1.83;;
47603;SDS011;33326;51.116;6.900;2022-07-06T22:39:13;7.68;;;2.40;;
47603;SDS011;33326;51.116;6.900;2022-07-06T22:44:15;6.03;;;1.98;;
47603;SDS011;33326;51.116;6.900;2022-07-06T22:49:17;9.48;;;2.10;;
47603;SDS011;33326;51.116;6.900;2022-07-06T22:54:20;7.68;;;2.15;;
47603;SDS011;33326;51.116;6.900;2022-07-06T22:59:22;10.32;;;2.20;;
47603;SDS011;33326;51.116;6.900;2022-07-06T23:04:24;7.45;;;2.38;;
47603;SDS011;33326;51.116;6.900;2022-07-06T23:09:27;7.60;;;2.30;;
47603;SDS011;33326;51.116;6.900;2022-07-06T23:14:29;9.75;;;2.83;;
47603;SDS011;33326;51.116;6.900;2022-07-06T23:19:31;6.10;;;2.65;;
47603;SDS011;33326;51.116;6.900;2022-07-06T23:24:38;11.27;;;3.03;;
47603;SDS011;33326;51.116;6.900;2022-07-06T23:29:40;8.43;;;4.13;;
47603;SDS011;33326;51.116;6.900;2022-07-06T23:34:42;5.22;;;3.40;;
47603;SDS011;33326;51.116;6.900;2022-07-06T23:39:45;9.45;;;4.13;;
47603;SDS011;33326;51.116;6.900;2022-07-06T23:44:48;11.02;;;4.28;;
47603;SDS011;33326;51.116;6.900;2022-07-06T23:49:50;7.60;;;3.92;;
47603;SDS011;33326;51.116;6.900;2022-07-06T23:54:54;9.63;;;4.80;;
47603;SDS011;33326;51.116;6.900;2022-07-06T23:59:55;7.03;;;4.00;;
